Oran, IA (50664)

7:53 PM CDT on May 05, 2015 (GMT -0500)
Maplewood Dr | | Change Station
CLOSE
Current Station
Personal Weather Station
Location: Oelwein, IA
Elevation: 1135 ft
Nearby Weather Stations

Elev 1135 ft 42.69 °N, 91.91 °W | Updated 7 seconds ago

Overcast
Overcast
56.5 °F
Feels Like 56.5 °F
N
5.1
Wind Variable Wind from East
Gusts 5.1 mph

Today
High -- | Low -- °F
--% Chance of Precip.
Yesterday
High -- | Low -- °F
Precip. -- in
5:56 AM 8:12 PM
Waning Gibbous, 96% visible
Pressure 30.13 in
Visibility 3.0 miles
Clouds Overcast 400 ft
Dew Point 55 °F
Humidity 93%
Rainfall 0.05 in
Snow Depth Not available.
UV 0 out of 12
Pollen 5.00 out of 12
Air Quality Not available.
Flu Activity Local Activity
METAR KOLZ 060035Z AUTO 09013KT 3SM BR OVC004 14/14 A3013 RMK AO2

More Conditions Fewer Conditions

Pressure 30.13 in
Visibility 3.0 miles
Clouds Overcast 400 ft
Dew Point 55 °F
Humidity 93%
Rainfall 0.05 in
Snow Depth Not available.
UV 0 out of 12
Pollen 5.00 out of 12
Air Quality Not available.
Flu Activity Local Activity
METAR KOLZ 060035Z AUTO 09013KT 3SM BR OVC004 14/14 A3013 RMK AO2

More Conditions Fewer Conditions

10-Day Weather Forecast

Almanac

Astronomy

May. 05, 2015 Rise Set
Actual Time
Civil Twilight
Nautical Twilight
Astronomical Twilight
Moon
Length of Visible Light
Length of Day
Tomorrow will be .
, % of the Moon is Illuminated

Today's Extremes

State Highs State Lows

Community

WunderPhotos

Upload Photos

1,819,025 photos uploaded!

WunderBlogs® & News

Nearby

Air Quality

  Air Quality AQ Index Pollutant
Not available.

Snow Depth

Station Depth Elevation

Earthquake Activity

City Distance Mag. Time & Date
Minimum magnitude displayed is 2.5.

Coastal Water Temperatures

Place Temperature

Stations

Nearby Weather Stations

Station Location Temp. Windchill Dew Point Humidity Wind Precip. Elev Updated Type